sensor_id;sensor_type;location;lat;lon;timestamp;temperature;humidity
27226;DHT22;14732;51.074;3.788;2022-12-10T00:01:22;1.50;99.90
27226;DHT22;14732;51.074;3.788;2022-12-10T00:03:48;1.60;99.90
27226;DHT22;14732;51.074;3.788;2022-12-10T00:06:17;1.50;99.90
27226;DHT22;14732;51.074;3.788;2022-12-10T00:08:43;1.40;99.90
27226;DHT22;14732;51.074;3.788;2022-12-10T00:11:11;1.50;99.90
27226;DHT22;14732;51.074;3.788;2022-12-10T00:13:37;1.50;99.90
27226;DHT22;14732;51.074;3.788;2022-12-10T00:16:05;1.60;99.90
27226;DHT22;14732;51.074;3.788;2022-12-10T00:18:31;1.70;99.90
27226;DHT22;14732;51.074;3.788;2022-12-10T00:20:57;1.60;99.90
27226;DHT22;14732;51.074;3.788;2022-12-10T00:23:23;1.60;99.90
27226;DHT22;14732;51.074;3.788;2022-12-10T00:25:49;1.60;99.90
27226;DHT22;14732;51.074;3.788;2022-12-10T00:28:14;1.60;99.90
27226;DHT22;14732;51.074;3.788;2022-12-10T00:30:40;1.50;99.90
27226;DHT22;14732;51.074;3.788;2022-12-10T00:33:06;1.50;99.90
27226;DHT22;14732;51.074;3.788;2022-12-10T00:35:35;1.70;99.90
27226;DHT22;14732;51.074;3.788;2022-12-10T00:38:01;1.70;99.90
27226;DHT22;14732;51.074;3.788;2022-12-10T00:40:26;1.80;99.90
27226;DHT22;14732;51.074;3.788;2022-12-10T00:42:52;1.60;99.90
27226;DHT22;14732;51.074;3.788;2022-12-10T00:45:17;1.60;99.90
27226;DHT22;14732;51.074;3.788;2022-12-10T00:47:43;1.60;99.90
27226;DHT22;14732;51.074;3.788;2022-12-10T00:50:09;1.70;99.90
27226;DHT22;14732;51.074;3.788;2022-12-10T00:52:34;1.90;99.90
27226;DHT22;14732;51.074;3.788;2022-12-10T00:55:00;1.80;99.90
27226;DHT22;14732;51.074;3.788;2022-12-10T00:57:26;1.80;99.90
27226;DHT22;14732;51.074;3.788;2022-12-10T00:59:51;1.80;99.90
27226;DHT22;14732;51.074;3.788;2022-12-10T01:02:17;1.70;99.90
27226;DHT22;14732;51.074;3.788;2022-12-10T01:04:44;1.70;99.90
27226;DHT22;14732;51.074;3.788;2022-12-10T01:07:09;1.60;99.90
27226;DHT22;14732;51.074;3.788;2022-12-10T01:09:36;1.70;99.90
27226;DHT22;14732;51.074;3.788;2022-12-10T01:12:02;1.70;99.90
27226;DHT22;14732;51.074;3.788;2022-12-10T01:14:31;1.50;99.90
27226;DHT22;14732;51.074;3.788;2022-12-10T01:17:01;1.10;99.90
27226;DHT22;14732;51.074;3.788;2022-12-10T01:19:31;1.10;99.90
27226;DHT22;14732;51.074;3.788;2022-12-10T01:21:58;1.20;99.90
27226;DHT22;14732;51.074;3.788;2022-12-10T01:24:27;1.30;99.90
27226;DHT22;14732;51.074;3.788;2022-12-10T01:26:53;1.40;99.90
27226;DHT22;14732;51.074;3.788;2022-12-10T01:29:20;1.40;99.90
27226;DHT22;14732;51.074;3.788;2022-12-10T01:31:50;1.50;99.90
27226;DHT22;14732;51.074;3.788;2022-12-10T01:34:16;1.40;99.90
27226;DHT22;14732;51.074;3.788;2022-12-10T01:36:44;1.70;99.90
27226;DHT22;14732;51.074;3.788;2022-12-10T01:39:14;1.70;99.90
27226;DHT22;14732;51.074;3.788;2022-12-10T01:41:53;1.60;99.90
27226;DHT22;14732;51.074;3.788;2022-12-10T01:46:47;1.60;99.90
27226;DHT22;14732;51.074;3.788;2022-12-10T01:49:37;1.60;99.90
27226;DHT22;14732;51.074;3.788;2022-12-10T01:52:06;1.70;99.90
27226;DHT22;14732;51.074;3.788;2022-12-10T01:54:38;1.70;99.90
27226;DHT22;14732;51.074;3.788;2022-12-10T01:57:11;1.60;99.90
27226;DHT22;14732;51.074;3.788;2022-12-10T01:59:38;1.60;99.90
27226;DHT22;14732;51.074;3.788;2022-12-10T02:02:53;1.60;99.90
27226;DHT22;14732;51.074;3.788;2022-12-10T02:07:36;1.80;99.90
27226;DHT22;14732;51.074;3.788;2022-12-10T02:12:49;1.90;99.90
27226;DHT22;14732;51.074;3.788;2022-12-10T02:15:36;1.80;99.90
27226;DHT22;14732;51.074;3.788;2022-12-10T02:18:34;1.80;99.90
27226;DHT22;14732;51.074;3.788;2022-12-10T02:21:06;1.80;99.90
27226;DHT22;14732;51.074;3.788;2022-12-10T02:23:43;1.80;99.90
27226;DHT22;14732;51.074;3.788;2022-12-10T02:26:14;1.90;99.90
27226;DHT22;14732;51.074;3.788;2022-12-10T02:29:15;1.90;99.90
27226;DHT22;14732;51.074;3.788;2022-12-10T02:31:33;1.90;99.90
27226;DHT22;14732;51.074;3.788;2022-12-10T02:34:03;1.90;99.90
27226;DHT22;14732;51.074;3.788;2022-12-10T02:36:33;1.90;99.90
27226;DHT22;14732;51.074;3.788;2022-12-10T02:39:03;2.10;99.90
27226;DHT22;14732;51.074;3.788;2022-12-10T02:41:40;2.20;99.90
27226;DHT22;14732;51.074;3.788;2022-12-10T02:44:09;2.20;99.90
27226;DHT22;14732;51.074;3.788;2022-12-10T02:46:37;2.10;99.90
27226;DHT22;14732;51.074;3.788;2022-12-10T02:49:05;2.40;99.90
27226;DHT22;14732;51.074;3.788;2022-12-10T02:51:31;2.50;99.90
27226;DHT22;14732;51.074;3.788;2022-12-10T02:54:06;2.40;99.90
27226;DHT22;14732;51.074;3.788;2022-12-10T02:56:54;2.30;99.90
27226;DHT22;14732;51.074;3.788;2022-12-10T03:02:43;2.10;99.90
27226;DHT22;14732;51.074;3.788;2022-12-10T03:08:18;2.10;99.90
27226;DHT22;14732;51.074;3.788;2022-12-10T03:10:53;2.20;99.90
27226;DHT22;14732;51.074;3.788;2022-12-10T03:13:27;2.40;99.90
27226;DHT22;14732;51.074;3.788;2022-12-10T03:15:55;2.20;99.90
27226;DHT22;14732;51.074;3.788;2022-12-10T03:18:23;2.20;99.90
27226;DHT22;14732;51.074;3.788;2022-12-10T03:20:51;2.30;99.90
27226;DHT22;14732;51.074;3.788;2022-12-10T03:23:18;2.30;99.90
27226;DHT22;14732;51.074;3.788;2022-12-10T03:25:47;2.30;99.90
27226;DHT22;14732;51.074;3.788;2022-12-10T03:28:14;2.20;99.90
27226;DHT22;14732;51.074;3.788;2022-12-10T03:30:42;2.30;99.90
27226;DHT22;14732;51.074;3.788;2022-12-10T03:33:08;2.20;99.90
27226;DHT22;14732;51.074;3.788;2022-12-10T03:35:35;2.10;99.90
27226;DHT22;14732;51.074;3.788;2022-12-10T03:38:01;2.00;99.90
27226;DHT22;14732;51.074;3.788;2022-12-10T03:40:27;2.40;99.90
27226;DHT22;14732;51.074;3.788;2022-12-10T03:42:53;2.40;99.90
27226;DHT22;14732;51.074;3.788;2022-12-10T03:45:19;2.40;99.90
27226;DHT22;14732;51.074;3.788;2022-12-10T03:47:44;2.40;99.90
27226;DHT22;14732;51.074;3.788;2022-12-10T03:50:10;2.40;99.90
27226;DHT22;14732;51.074;3.788;2022-12-10T03:52:36;2.50;99.90
27226;DHT22;14732;51.074;3.788;2022-12-10T03:55:05;2.50;99.90
27226;DHT22;14732;51.074;3.788;2022-12-10T03:57:32;2.60;99.90
27226;DHT22;14732;51.074;3.788;2022-12-10T03:59:58;2.60;99.90
27226;DHT22;14732;51.074;3.788;2022-12-10T04:02:23;2.60;99.90
27226;DHT22;14732;51.074;3.788;2022-12-10T04:04:49;2.50;99.90
27226;DHT22;14732;51.074;3.788;2022-12-10T04:07:15;2.50;99.90
27226;DHT22;14732;51.074;3.788;2022-12-10T04:09:40;2.50;99.90
27226;DHT22;14732;51.074;3.788;2022-12-10T04:12:06;2.50;99.90
27226;DHT22;14732;51.074;3.788;2022-12-10T04:14:32;2.60;99.90
27226;DHT22;14732;51.074;3.788;2022-12-10T04:17:16;2.50;99.90
27226;DHT22;14732;51.074;3.788;2022-12-10T04:19:42;2.30;99.90
27226;DHT22;14732;51.074;3.788;2022-12-10T04:22:09;2.20;99.90
27226;DHT22;14732;51.074;3.788;2022-12-10T04:25:11;2.20;99.90
27226;DHT22;14732;51.074;3.788;2022-12-10T04:27:56;2.10;99.90
27226;DHT22;14732;51.074;3.788;2022-12-10T04:30:22;2.10;99.90
27226;DHT22;14732;51.074;3.788;2022-12-10T04:32:47;2.10;99.90
27226;DHT22;14732;51.074;3.788;2022-12-10T04:35:13;2.30;99.90
27226;DHT22;14732;51.074;3.788;2022-12-10T04:37:39;2.30;99.90
27226;DHT22;14732;51.074;3.788;2022-12-10T04:40:05;2.50;99.90
27226;DHT22;14732;51.074;3.788;2022-12-10T04:42:31;2.60;99.90
27226;DHT22;14732;51.074;3.788;2022-12-10T04:44:57;2.60;99.90
27226;DHT22;14732;51.074;3.788;2022-12-10T04:47:22;2.60;99.90
27226;DHT22;14732;51.074;3.788;2022-12-10T04:49:48;2.50;99.90
27226;DHT22;14732;51.074;3.788;2022-12-10T04:52:15;2.50;99.90
27226;DHT22;14732;51.074;3.788;2022-12-10T04:54:42;2.60;99.90
27226;DHT22;14732;51.074;3.788;2022-12-10T04:57:08;2.80;99.90
27226;DHT22;14732;51.074;3.788;2022-12-10T04:59:35;3.00;99.90
27226;DHT22;14732;51.074;3.788;2022-12-10T05:02:01;2.90;99.90
27226;DHT22;14732;51.074;3.788;2022-12-10T05:04:27;2.70;99.90
27226;DHT22;14732;51.074;3.788;2022-12-10T05:06:52;2.70;99.90
27226;DHT22;14732;51.074;3.788;2022-12-10T05:09:18;2.70;99.90
27226;DHT22;14732;51.074;3.788;2022-12-10T05:11:44;2.60;99.90
27226;DHT22;14732;51.074;3.788;2022-12-10T05:14:14;2.60;99.90
27226;DHT22;14732;51.074;3.788;2022-12-10T05:16:40;2.80;99.90
27226;DHT22;14732;51.074;3.788;2022-12-10T05:19:06;2.80;99.90
27226;DHT22;14732;51.074;3.788;2022-12-10T05:21:32;2.80;99.90
27226;DHT22;14732;51.074;3.788;2022-12-10T05:24:18;2.90;99.90
27226;DHT22;14732;51.074;3.788;2022-12-10T05:26:44;2.90;99.90
27226;DHT22;14732;51.074;3.788;2022-12-10T05:29:10;2.70;99.90
27226;DHT22;14732;51.074;3.788;2022-12-10T05:31:37;2.80;99.90
27226;DHT22;14732;51.074;3.788;2022-12-10T05:34:02;2.90;99.90
27226;DHT22;14732;51.074;3.788;2022-12-10T05:36:30;2.80;99.90
27226;DHT22;14732;51.074;3.788;2022-12-10T05:38:57;2.80;99.90
27226;DHT22;14732;51.074;3.788;2022-12-10T05:41:25;2.80;99.90
27226;DHT22;14732;51.074;3.788;2022-12-10T05:43:53;2.60;99.90
27226;DHT22;14732;51.074;3.788;2022-12-10T05:46:21;2.50;99.90
27226;DHT22;14732;51.074;3.788;2022-12-10T05:48:48;2.50;99.90
27226;DHT22;14732;51.074;3.788;2022-12-10T05:51:16;2.60;99.90
27226;DHT22;14732;51.074;3.788;2022-12-10T05:53:42;2.70;99.90
27226;DHT22;14732;51.074;3.788;2022-12-10T05:56:11;2.60;99.90
27226;DHT22;14732;51.074;3.788;2022-12-10T05:58:40;2.70;99.90
27226;DHT22;14732;51.074;3.788;2022-12-10T06:01:08;2.90;99.90
27226;DHT22;14732;51.074;3.788;2022-12-10T06:03:35;2.90;99.90
27226;DHT22;14732;51.074;3.788;2022-12-10T06:06:00;3.00;99.90
27226;DHT22;14732;51.074;3.788;2022-12-10T06:08:26;2.90;99.90
27226;DHT22;14732;51.074;3.788;2022-12-10T06:10:51;2.70;99.90
27226;DHT22;14732;51.074;3.788;2022-12-10T06:13:17;2.70;99.90
27226;DHT22;14732;51.074;3.788;2022-12-10T06:15:43;2.80;99.90
27226;DHT22;14732;51.074;3.788;2022-12-10T06:18:11;3.00;99.90
27226;DHT22;14732;51.074;3.788;2022-12-10T06:20:40;2.80;99.90
27226;DHT22;14732;51.074;3.788;2022-12-10T06:23:06;2.80;99.90
27226;DHT22;14732;51.074;3.788;2022-12-10T06:25:32;2.70;99.90
27226;DHT22;14732;51.074;3.788;2022-12-10T06:27:57;2.60;99.90
27226;DHT22;14732;51.074;3.788;2022-12-10T06:30:23;2.50;99.90
27226;DHT22;14732;51.074;3.788;2022-12-10T06:32:49;2.50;99.90
27226;DHT22;14732;51.074;3.788;2022-12-10T06:35:14;2.70;99.90
27226;DHT22;14732;51.074;3.788;2022-12-10T06:37:40;2.70;99.90
27226;DHT22;14732;51.074;3.788;2022-12-10T06:40:06;2.70;99.90
27226;DHT22;14732;51.074;3.788;2022-12-10T06:42:32;2.60;99.90
27226;DHT22;14732;51.074;3.788;2022-12-10T06:44:58;2.80;99.90
27226;DHT22;14732;51.074;3.788;2022-12-10T06:47:23;2.70;99.90
27226;DHT22;14732;51.074;3.788;2022-12-10T06:49:49;2.60;99.90
27226;DHT22;14732;51.074;3.788;2022-12-10T06:52:15;2.60;99.90
27226;DHT22;14732;51.074;3.788;2022-12-10T06:54:40;2.60;99.90
27226;DHT22;14732;51.074;3.788;2022-12-10T06:57:06;2.70;99.90
27226;DHT22;14732;51.074;3.788;2022-12-10T06:59:32;2.80;99.90
27226;DHT22;14732;51.074;3.788;2022-12-10T07:01:57;3.00;99.90
27226;DHT22;14732;51.074;3.788;2022-12-10T07:04:23;2.80;99.90
27226;DHT22;14732;51.074;3.788;2022-12-10T07:06:49;2.60;99.90
27226;DHT22;14732;51.074;3.788;2022-12-10T07:09:15;2.70;99.90
27226;DHT22;14732;51.074;3.788;2022-12-10T07:11:41;2.80;99.90
27226;DHT22;14732;51.074;3.788;2022-12-10T07:14:07;2.80;99.90
27226;DHT22;14732;51.074;3.788;2022-12-10T07:16:34;2.80;99.90
27226;DHT22;14732;51.074;3.788;2022-12-10T07:19:01;2.70;99.90
27226;DHT22;14732;51.074;3.788;2022-12-10T07:21:31;2.80;99.90
27226;DHT22;14732;51.074;3.788;2022-12-10T07:24:03;2.80;99.90
27226;DHT22;14732;51.074;3.788;2022-12-10T07:26:30;2.70;99.90
27226;DHT22;14732;51.074;3.788;2022-12-10T07:28:56;2.80;99.90
27226;DHT22;14732;51.074;3.788;2022-12-10T07:31:23;2.80;99.90
27226;DHT22;14732;51.074;3.788;2022-12-10T07:33:50;2.70;99.90
27226;DHT22;14732;51.074;3.788;2022-12-10T07:36:15;2.80;99.90
27226;DHT22;14732;51.074;3.788;2022-12-10T07:38:41;2.80;99.90
27226;DHT22;14732;51.074;3.788;2022-12-10T07:41:10;2.90;99.90
27226;DHT22;14732;51.074;3.788;2022-12-10T07:43:38;2.80;99.90
27226;DHT22;14732;51.074;3.788;2022-12-10T07:46:06;2.70;99.90
27226;DHT22;14732;51.074;3.788;2022-12-10T07:48:33;2.80;99.90
27226;DHT22;14732;51.074;3.788;2022-12-10T07:50:59;2.70;99.90
27226;DHT22;14732;51.074;3.788;2022-12-10T07:53:25;2.60;99.90
27226;DHT22;14732;51.074;3.788;2022-12-10T07:55:50;2.40;99.90
27226;DHT22;14732;51.074;3.788;2022-12-10T07:58:16;2.50;99.90
27226;DHT22;14732;51.074;3.788;2022-12-10T08:00:42;2.60;99.90
27226;DHT22;14732;51.074;3.788;2022-12-10T08:03:07;2.60;99.90
27226;DHT22;14732;51.074;3.788;2022-12-10T08:05:33;2.80;99.90
27226;DHT22;14732;51.074;3.788;2022-12-10T08:07:59;2.80;99.90
27226;DHT22;14732;51.074;3.788;2022-12-10T08:10:24;2.90;99.90
27226;DHT22;14732;51.074;3.788;2022-12-10T08:12:50;2.80;99.90
27226;DHT22;14732;51.074;3.788;2022-12-10T08:15:16;2.90;99.90
27226;DHT22;14732;51.074;3.788;2022-12-10T08:17:41;3.00;99.90
27226;DHT22;14732;51.074;3.788;2022-12-10T08:20:08;3.40;99.90
27226;DHT22;14732;51.074;3.788;2022-12-10T08:22:34;3.40;99.90
27226;DHT22;14732;51.074;3.788;2022-12-10T08:25:01;3.50;99.90
27226;DHT22;14732;51.074;3.788;2022-12-10T08:27:26;3.30;99.90
27226;DHT22;14732;51.074;3.788;2022-12-10T08:29:52;3.30;99.90
27226;DHT22;14732;51.074;3.788;2022-12-10T08:32:18;3.20;99.90
27226;DHT22;14732;51.074;3.788;2022-12-10T08:34:44;3.30;99.90
27226;DHT22;14732;51.074;3.788;2022-12-10T08:37:09;3.30;99.90
27226;DHT22;14732;51.074;3.788;2022-12-10T08:39:35;3.30;99.90
27226;DHT22;14732;51.074;3.788;2022-12-10T08:42:01;3.30;99.90
27226;DHT22;14732;51.074;3.788;2022-12-10T08:44:26;3.40;99.90
27226;DHT22;14732;51.074;3.788;2022-12-10T08:46:52;3.40;99.90
27226;DHT22;14732;51.074;3.788;2022-12-10T08:49:18;3.30;99.90
27226;DHT22;14732;51.074;3.788;2022-12-10T08:51:43;3.10;99.90
27226;DHT22;14732;51.074;3.788;2022-12-10T08:54:09;3.20;99.90
27226;DHT22;14732;51.074;3.788;2022-12-10T08:56:35;3.30;99.90
27226;DHT22;14732;51.074;3.788;2022-12-10T08:59:00;3.40;99.90
27226;DHT22;14732;51.074;3.788;2022-12-10T09:01:26;3.30;99.90
27226;DHT22;14732;51.074;3.788;2022-12-10T09:03:52;3.40;99.90
27226;DHT22;14732;51.074;3.788;2022-12-10T09:06:21;3.60;99.90
27226;DHT22;14732;51.074;3.788;2022-12-10T09:08:49;3.70;99.90
27226;DHT22;14732;51.074;3.788;2022-12-10T09:11:21;3.80;99.90
27226;DHT22;14732;51.074;3.788;2022-12-10T09:13:48;3.90;99.90
27226;DHT22;14732;51.074;3.788;2022-12-10T09:16:13;3.90;99.90
27226;DHT22;14732;51.074;3.788;2022-12-10T09:18:39;3.90;99.90
27226;DHT22;14732;51.074;3.788;2022-12-10T09:21:14;3.70;99.90
27226;DHT22;14732;51.074;3.788;2022-12-10T09:23:41;3.80;99.90
27226;DHT22;14732;51.074;3.788;2022-12-10T09:26:13;3.70;99.90
27226;DHT22;14732;51.074;3.788;2022-12-10T09:28:40;3.70;99.90
27226;DHT22;14732;51.074;3.788;2022-12-10T09:31:07;3.60;99.90
27226;DHT22;14732;51.074;3.788;2022-12-10T09:33:33;3.70;99.90
27226;DHT22;14732;51.074;3.788;2022-12-10T09:35:59;3.80;99.90
27226;DHT22;14732;51.074;3.788;2022-12-10T09:38:24;3.90;99.90
27226;DHT22;14732;51.074;3.788;2022-12-10T09:43:39;3.90;99.90
27226;DHT22;14732;51.074;3.788;2022-12-10T09:51:27;4.20;99.90
27226;DHT22;14732;51.074;3.788;2022-12-10T09:53:55;4.30;99.90
27226;DHT22;14732;51.074;3.788;2022-12-10T09:56:36;4.30;99.90
27226;DHT22;14732;51.074;3.788;2022-12-10T09:59:38;4.20;99.90
27226;DHT22;14732;51.074;3.788;2022-12-10T10:02:29;4.20;99.90
27226;DHT22;14732;51.074;3.788;2022-12-10T10:05:11;4.10;99.90
27226;DHT22;14732;51.074;3.788;2022-12-10T10:07:51;4.20;99.90
27226;DHT22;14732;51.074;3.788;2022-12-10T10:10:24;4.30;99.90
27226;DHT22;14732;51.074;3.788;2022-12-10T10:15:43;4.50;99.90
27226;DHT22;14732;51.074;3.788;2022-12-10T10:20:40;4.30;99.90
27226;DHT22;14732;51.074;3.788;2022-12-10T10:23:08;4.40;99.90
27226;DHT22;14732;51.074;3.788;2022-12-10T10:25:34;4.60;99.90
27226;DHT22;14732;51.074;3.788;2022-12-10T10:27:59;4.80;99.90
27226;DHT22;14732;51.074;3.788;2022-12-10T10:30:25;4.70;99.90
27226;DHT22;14732;51.074;3.788;2022-12-10T10:32:54;4.80;99.90
27226;DHT22;14732;51.074;3.788;2022-12-10T10:35:33;4.80;99.90
27226;DHT22;14732;51.074;3.788;2022-12-10T10:38:07;4.90;99.90
27226;DHT22;14732;51.074;3.788;2022-12-10T10:40:40;4.90;99.90
27226;DHT22;14732;51.074;3.788;2022-12-10T10:43:26;4.80;99.90
27226;DHT22;14732;51.074;3.788;2022-12-10T10:46:04;4.70;99.90
27226;DHT22;14732;51.074;3.788;2022-12-10T10:48:30;4.70;99.90
27226;DHT22;14732;51.074;3.788;2022-12-10T10:53:46;5.00;99.90
27226;DHT22;14732;51.074;3.788;2022-12-10T10:56:27;5.00;99.90
27226;DHT22;14732;51.074;3.788;2022-12-10T11:01:27;5.20;99.90
27226;DHT22;14732;51.074;3.788;2022-12-10T11:04:08;5.30;99.90
27226;DHT22;14732;51.074;3.788;2022-12-10T11:06:35;5.30;99.90
27226;DHT22;14732;51.074;3.788;2022-12-10T11:09:01;5.10;99.90
27226;DHT22;14732;51.074;3.788;2022-12-10T11:11:42;5.00;99.90
27226;DHT22;14732;51.074;3.788;2022-12-10T11:14:25;4.80;99.90
27226;DHT22;14732;51.074;3.788;2022-12-10T11:17:21;4.80;99.90
27226;DHT22;14732;51.074;3.788;2022-12-10T11:20:16;5.00;99.90
27226;DHT22;14732;51.074;3.788;2022-12-10T11:22:51;5.10;99.90
27226;DHT22;14732;51.074;3.788;2022-12-10T11:25:31;5.30;99.90
27226;DHT22;14732;51.074;3.788;2022-12-10T11:28:10;5.40;99.90
27226;DHT22;14732;51.074;3.788;2022-12-10T11:30:46;5.50;99.90
27226;DHT22;14732;51.074;3.788;2022-12-10T11:33:32;5.30;99.90
27226;DHT22;14732;51.074;3.788;2022-12-10T12:01:12;5.30;99.90
27226;DHT22;14732;51.074;3.788;2022-12-10T12:06:36;5.10;99.90
27226;DHT22;14732;51.074;3.788;2022-12-10T12:11:55;5.20;99.90
27226;DHT22;14732;51.074;3.788;2022-12-10T12:14:36;5.10;99.90
27226;DHT22;14732;51.074;3.788;2022-12-10T12:22:36;5.10;99.90
27226;DHT22;14732;51.074;3.788;2022-12-10T12:25:14;5.20;99.90
27226;DHT22;14732;51.074;3.788;2022-12-10T12:27:43;5.20;99.90
27226;DHT22;14732;51.074;3.788;2022-12-10T12:30:19;5.30;99.90
27226;DHT22;14732;51.074;3.788;2022-12-10T12:32:58;5.20;99.90
27226;DHT22;14732;51.074;3.788;2022-12-10T12:35:46;5.10;99.90
27226;DHT22;14732;51.074;3.788;2022-12-10T12:38:39;5.10;99.90
27226;DHT22;14732;51.074;3.788;2022-12-10T12:46:48;5.20;99.90
27226;DHT22;14732;51.074;3.788;2022-12-10T12:49:35;5.20;99.90
27226;DHT22;14732;51.074;3.788;2022-12-10T12:52:10;5.30;99.90
27226;DHT22;14732;51.074;3.788;2022-12-10T12:54:41;5.30;99.90
27226;DHT22;14732;51.074;3.788;2022-12-10T13:00:01;5.40;99.90
27226;DHT22;14732;51.074;3.788;2022-12-10T13:05:28;5.60;99.90
27226;DHT22;14732;51.074;3.788;2022-12-10T13:11:17;5.60;99.90
27226;DHT22;14732;51.074;3.788;2022-12-10T13:14:03;5.70;99.90
27226;DHT22;14732;51.074;3.788;2022-12-10T13:22:10;5.80;99.90
27226;DHT22;14732;51.074;3.788;2022-12-10T13:27:19;5.80;99.90
27226;DHT22;14732;51.074;3.788;2022-12-10T13:44:24;5.40;99.90
27226;DHT22;14732;51.074;3.788;2022-12-10T13:46:40;5.30;99.90
27226;DHT22;14732;51.074;3.788;2022-12-10T13:49:18;5.40;99.90
27226;DHT22;14732;51.074;3.788;2022-12-10T13:54:38;5.30;99.90
27226;DHT22;14732;51.074;3.788;2022-12-10T14:00:14;5.40;99.90
27226;DHT22;14732;51.074;3.788;2022-12-10T14:03:28;5.30;99.90
27226;DHT22;14732;51.074;3.788;2022-12-10T14:06:20;5.30;99.90
27226;DHT22;14732;51.074;3.788;2022-12-10T14:09:00;5.20;99.90
27226;DHT22;14732;51.074;3.788;2022-12-10T14:11:31;5.30;99.90
27226;DHT22;14732;51.074;3.788;2022-12-10T14:14:00;5.50;99.90
27226;DHT22;14732;51.074;3.788;2022-12-10T14:16:30;5.70;99.90
27226;DHT22;14732;51.074;3.788;2022-12-10T14:19:03;5.60;99.90
27226;DHT22;14732;51.074;3.788;2022-12-10T14:21:37;5.30;99.90
27226;DHT22;14732;51.074;3.788;2022-12-10T14:24:04;5.10;99.90
27226;DHT22;14732;51.074;3.788;2022-12-10T14:26:36;5.10;99.90
27226;DHT22;14732;51.074;3.788;2022-12-10T14:29:21;5.10;99.90
27226;DHT22;14732;51.074;3.788;2022-12-10T14:31:48;5.30;99.90
27226;DHT22;14732;51.074;3.788;2022-12-10T14:34:23;5.30;99.90
27226;DHT22;14732;51.074;3.788;2022-12-10T14:36:52;5.30;99.90
27226;DHT22;14732;51.074;3.788;2022-12-10T14:41:48;5.50;99.90
27226;DHT22;14732;51.074;3.788;2022-12-10T14:44:16;5.70;99.90
27226;DHT22;14732;51.074;3.788;2022-12-10T14:46:46;5.80;99.90
27226;DHT22;14732;51.074;3.788;2022-12-10T14:49:25;5.70;99.90
27226;DHT22;14732;51.074;3.788;2022-12-10T14:51:51;5.70;99.90
27226;DHT22;14732;51.074;3.788;2022-12-10T14:54:32;5.80;99.90
27226;DHT22;14732;51.074;3.788;2022-12-10T14:57:01;5.90;99.90
27226;DHT22;14732;51.074;3.788;2022-12-10T14:59:42;5.90;99.90
27226;DHT22;14732;51.074;3.788;2022-12-10T15:02:28;5.70;99.90
27226;DHT22;14732;51.074;3.788;2022-12-10T15:04:55;5.40;99.90
27226;DHT22;14732;51.074;3.788;2022-12-10T15:07:24;5.20;99.90
27226;DHT22;14732;51.074;3.788;2022-12-10T15:09:52;5.20;99.90
27226;DHT22;14732;51.074;3.788;2022-12-10T15:12:57;5.40;99.90
27226;DHT22;14732;51.074;3.788;2022-12-10T15:15:37;5.40;99.90
27226;DHT22;14732;51.074;3.788;2022-12-10T15:18:10;5.50;99.90
27226;DHT22;14732;51.074;3.788;2022-12-10T15:20:51;5.80;99.90
27226;DHT22;14732;51.074;3.788;2022-12-10T15:23:22;5.60;99.90
27226;DHT22;14732;51.074;3.788;2022-12-10T15:30:51;5.70;99.90
27226;DHT22;14732;51.074;3.788;2022-12-10T15:33:47;5.70;99.90
27226;DHT22;14732;51.074;3.788;2022-12-10T15:38:51;5.60;99.90
27226;DHT22;14732;51.074;3.788;2022-12-10T15:41:31;5.50;99.90
27226;DHT22;14732;51.074;3.788;2022-12-10T15:44:03;5.40;99.90
27226;DHT22;14732;51.074;3.788;2022-12-10T15:46:29;5.50;99.90
27226;DHT22;14732;51.074;3.788;2022-12-10T15:48:55;5.40;99.90
27226;DHT22;14732;51.074;3.788;2022-12-10T15:51:20;5.20;99.90
27226;DHT22;14732;51.074;3.788;2022-12-10T15:53:46;5.10;99.90
27226;DHT22;14732;51.074;3.788;2022-12-10T15:56:12;5.20;99.90
27226;DHT22;14732;51.074;3.788;2022-12-10T15:58:38;5.10;99.90
27226;DHT22;14732;51.074;3.788;2022-12-10T16:01:03;5.10;99.90
27226;DHT22;14732;51.074;3.788;2022-12-10T16:03:29;5.10;99.90
27226;DHT22;14732;51.074;3.788;2022-12-10T16:05:55;5.20;99.90
27226;DHT22;14732;51.074;3.788;2022-12-10T16:08:27;5.00;99.90
27226;DHT22;14732;51.074;3.788;2022-12-10T16:10:56;5.10;99.90
27226;DHT22;14732;51.074;3.788;2022-12-10T16:13:30;5.00;99.90
27226;DHT22;14732;51.074;3.788;2022-12-10T16:16:04;5.00;99.90
27226;DHT22;14732;51.074;3.788;2022-12-10T16:18:30;4.80;99.90
27226;DHT22;14732;51.074;3.788;2022-12-10T16:20:56;4.60;99.90
27226;DHT22;14732;51.074;3.788;2022-12-10T16:23:21;4.60;99.90
27226;DHT22;14732;51.074;3.788;2022-12-10T16:25:47;4.60;99.90
27226;DHT22;14732;51.074;3.788;2022-12-10T16:28:15;4.60;99.90
27226;DHT22;14732;51.074;3.788;2022-12-10T16:30:52;4.50;99.90
27226;DHT22;14732;51.074;3.788;2022-12-10T16:33:19;4.40;99.90
27226;DHT22;14732;51.074;3.788;2022-12-10T16:35:48;4.20;99.90
27226;DHT22;14732;51.074;3.788;2022-12-10T16:38:15;4.10;99.90
27226;DHT22;14732;51.074;3.788;2022-12-10T16:40:41;4.20;99.90
27226;DHT22;14732;51.074;3.788;2022-12-10T16:43:25;4.20;99.90
27226;DHT22;14732;51.074;3.788;2022-12-10T16:45:52;4.00;99.90
27226;DHT22;14732;51.074;3.788;2022-12-10T16:48:18;4.00;99.90
27226;DHT22;14732;51.074;3.788;2022-12-10T16:50:45;4.10;99.90
27226;DHT22;14732;51.074;3.788;2022-12-10T16:53:24;4.20;99.90
27226;DHT22;14732;51.074;3.788;2022-12-10T16:55:51;4.10;99.90
27226;DHT22;14732;51.074;3.788;2022-12-10T16:58:17;4.10;99.90
27226;DHT22;14732;51.074;3.788;2022-12-10T17:00:45;4.20;99.90
27226;DHT22;14732;51.074;3.788;2022-12-10T17:03:13;4.40;99.90
27226;DHT22;14732;51.074;3.788;2022-12-10T17:05:47;4.40;99.90
27226;DHT22;14732;51.074;3.788;2022-12-10T17:08:13;4.50;99.90
27226;DHT22;14732;51.074;3.788;2022-12-10T17:10:39;4.60;99.90
27226;DHT22;14732;51.074;3.788;2022-12-10T17:13:24;4.50;99.90
27226;DHT22;14732;51.074;3.788;2022-12-10T17:15:52;4.40;99.90
27226;DHT22;14732;51.074;3.788;2022-12-10T17:18:18;4.30;99.90
27226;DHT22;14732;51.074;3.788;2022-12-10T17:20:45;4.20;99.90
27226;DHT22;14732;51.074;3.788;2022-12-10T17:23:12;4.20;99.90
27226;DHT22;14732;51.074;3.788;2022-12-10T17:25:41;4.20;99.90
27226;DHT22;14732;51.074;3.788;2022-12-10T17:28:16;4.10;99.90
27226;DHT22;14732;51.074;3.788;2022-12-10T17:30:42;4.00;99.90
27226;DHT22;14732;51.074;3.788;2022-12-10T17:33:21;4.00;99.90
27226;DHT22;14732;51.074;3.788;2022-12-10T17:35:48;4.00;99.90
27226;DHT22;14732;51.074;3.788;2022-12-10T17:38:24;4.10;99.90
27226;DHT22;14732;51.074;3.788;2022-12-10T17:40:51;4.10;99.90
27226;DHT22;14732;51.074;3.788;2022-12-10T17:43:17;4.20;99.90
27226;DHT22;14732;51.074;3.788;2022-12-10T17:45:44;4.20;99.90
27226;DHT22;14732;51.074;3.788;2022-12-10T17:48:15;4.20;99.90
27226;DHT22;14732;51.074;3.788;2022-12-10T17:50:42;4.20;99.90
27226;DHT22;14732;51.074;3.788;2022-12-10T17:53:10;4.20;99.90
27226;DHT22;14732;51.074;3.788;2022-12-10T17:55:41;4.10;99.90
27226;DHT22;14732;51.074;3.788;2022-12-10T17:58:09;4.20;99.90
27226;DHT22;14732;51.074;3.788;2022-12-10T18:00:36;4.30;99.90
27226;DHT22;14732;51.074;3.788;2022-12-10T18:03:02;4.40;99.90
27226;DHT22;14732;51.074;3.788;2022-12-10T18:05:28;4.40;99.90